createdAt,value
2019-03-25T00:00:39.623Z,18.60
2019-03-25T00:05:33.632Z,18.97
2019-03-25T00:10:27.744Z,14.33
2019-03-25T00:15:21.741Z,14.67
2019-03-25T00:20:15.785Z,16.00
2019-03-25T00:25:09.771Z,13.07
2019-03-25T00:30:04.662Z,16.57
2019-03-25T00:34:58.627Z,11.93
2019-03-25T00:39:52.593Z,15.33
2019-03-25T00:44:46.597Z,15.73
2019-03-25T00:49:40.592Z,13.37
2019-03-25T00:54:34.554Z,16.10
2019-03-25T00:59:28.831Z,17.40
2019-03-25T01:04:22.833Z,11.60
2019-03-25T01:09:16.811Z,19.27
2019-03-25T01:14:10.780Z,17.23
2019-03-25T01:19:04.739Z,17.47
2019-03-25T01:23:58.803Z,17.80
2019-03-25T01:28:52.774Z,18.30
2019-03-25T01:33:46.737Z,18.17
2019-03-25T01:38:40.698Z,14.60
2019-03-25T01:43:34.776Z,14.73
2019-03-25T01:48:28.739Z,12.27
2019-03-25T01:53:22.709Z,16.13
2019-03-25T01:58:16.769Z,19.30
2019-03-25T02:03:10.711Z,18.03
2019-03-25T02:08:04.681Z,21.30
2019-03-25T02:12:58.748Z,20.63
2019-03-25T02:17:52.719Z,13.97
2019-03-25T02:22:46.870Z,13.80
2019-03-25T02:27:40.938Z,14.93
2019-03-25T02:32:34.993Z,16.30
2019-03-25T02:37:29.268Z,18.27
2019-03-25T02:42:23.261Z,17.77
2019-03-25T02:47:17.513Z,14.87
2019-03-25T02:52:11.493Z,16.83
2019-03-25T02:57:05.436Z,19.17
2019-03-25T03:01:59.403Z,17.43
2019-03-25T03:06:53.493Z,14.63
2019-03-25T03:11:47.464Z,14.60
2019-03-25T03:16:41.545Z,15.97
2019-03-25T03:21:35.523Z,16.83
2019-03-25T03:26:29.477Z,21.53
2019-03-25T03:31:23.477Z,16.30
2019-03-25T03:36:17.512Z,21.97
2019-03-25T03:41:11.479Z,19.63
2019-03-25T03:46:05.635Z,14.47
2019-03-25T03:51:00.117Z,22.63
2019-03-25T03:55:54.180Z,15.23
2019-03-25T04:00:48.331Z,20.03
2019-03-25T04:05:42.365Z,20.23
2019-03-25T04:10:36.325Z,20.00
2019-03-25T04:15:30.590Z,13.33
2019-03-25T04:20:24.554Z,14.20
2019-03-25T04:25:18.530Z,16.43
2019-03-25T04:30:12.686Z,21.70
2019-03-25T04:35:06.958Z,19.50
2019-03-25T04:40:01.487Z,18.87
2019-03-25T04:44:55.425Z,19.40
2019-03-25T04:49:49.416Z,14.97
2019-03-25T04:54:43.389Z,10.37
2019-03-25T04:59:37.444Z,12.67
2019-03-25T05:04:31.409Z,12.13
2019-03-25T05:09:25.404Z,11.90
2019-03-25T05:14:19.404Z,9.80
2019-03-25T05:19:13.425Z,9.03
2019-03-25T05:24:07.431Z,13.50
2019-03-25T05:29:01.495Z,16.67
2019-03-25T05:33:55.455Z,9.77
2019-03-25T05:38:49.405Z,6.90
2019-03-25T05:43:43.366Z,12.77
2019-03-25T05:48:37.365Z,14.83
2019-03-25T05:53:31.325Z,11.67
2019-03-25T05:58:25.471Z,18.33
2019-03-25T06:03:19.629Z,5.63
2019-03-25T06:08:13.656Z,13.57
2019-03-25T06:13:07.638Z,8.97
2019-03-25T06:18:01.751Z,7.83
2019-03-25T06:22:55.829Z,9.13
2019-03-25T06:32:49.934Z,12.10
2019-03-25T06:37:43.953Z,11.37
2019-03-25T06:42:37.925Z,22.77
2019-03-25T06:47:31.962Z,13.07
2019-03-25T06:52:25.922Z,9.13
2019-03-25T06:57:25.503Z,19.87
2019-03-25T07:02:15.996Z,12.70
2019-03-25T07:07:10.130Z,16.53
2019-03-25T07:12:04.215Z,21.40
2019-03-25T07:16:58.182Z,19.60
2019-03-25T07:21:52.264Z,22.77
2019-03-25T07:26:46.433Z,19.63
2019-03-25T07:31:40.523Z,16.73
2019-03-25T07:36:34.527Z,14.57
2019-03-25T07:41:28.513Z,21.63
2019-03-25T07:46:22.579Z,28.53
2019-03-25T07:51:16.817Z,11.73
2019-03-25T07:56:10.886Z,13.40
2019-03-25T08:01:04.872Z,13.77
2019-03-25T08:05:58.939Z,18.73
2019-03-25T08:10:52.941Z,19.87
2019-03-25T08:15:47.042Z,14.93
2019-03-25T08:20:41.087Z,19.63
2019-03-25T08:25:35.139Z,19.93
2019-03-25T08:30:29.434Z,16.20
2019-03-25T08:35:23.396Z,12.10
2019-03-25T08:40:17.472Z,15.77
2019-03-25T08:45:11.590Z,15.50
2019-03-25T08:50:07.217Z,17.23
2019-03-25T08:55:01.182Z,13.37
2019-03-25T08:59:57.464Z,14.97
2019-03-25T09:04:51.220Z,8.03
2019-03-25T09:09:45.286Z,11.50
2019-03-25T09:14:39.227Z,7.07
2019-03-25T09:19:33.320Z,11.80
2019-03-25T09:24:27.288Z,9.70
2019-03-25T09:29:21.389Z,9.87
2019-03-25T09:34:15.686Z,12.67
2019-03-25T09:39:09.886Z,4.90
2019-03-25T09:44:04.095Z,10.97
2019-03-25T09:48:58.211Z,11.83
2019-03-25T09:53:52.168Z,6.17
2019-03-25T09:58:46.316Z,7.93
2019-03-25T10:03:40.401Z,8.80
2019-03-25T10:08:34.481Z,10.80
2019-03-25T10:13:28.500Z,10.03
2019-03-25T10:18:22.584Z,11.00
2019-03-25T10:23:16.554Z,6.97
2019-03-25T10:28:10.543Z,6.73
2019-03-25T10:33:04.643Z,11.63
2019-03-25T10:37:58.641Z,5.30
2019-03-25T10:42:52.594Z,3.70
2019-03-25T10:47:46.596Z,5.47
2019-03-25T10:52:40.803Z,3.62
2019-03-25T10:57:34.851Z,3.87
2019-03-25T11:02:29.332Z,5.92
2019-03-25T11:07:23.475Z,5.80
2019-03-25T11:12:17.484Z,6.65
2019-03-25T11:17:11.552Z,6.30
2019-03-25T11:22:05.648Z,4.55
2019-03-25T11:26:59.628Z,4.53
2019-03-25T11:31:53.609Z,6.72
2019-03-25T11:36:47.679Z,6.45
2019-03-25T11:41:41.760Z,8.48
2019-03-25T11:46:35.930Z,8.43
2019-03-25T11:51:30.087Z,4.90
2019-03-25T11:56:24.071Z,3.52
2019-03-25T12:01:18.136Z,3.10
2019-03-25T12:06:12.220Z,5.95
2019-03-25T12:11:06.294Z,4.17
2019-03-25T12:16:00.367Z,2.83
2019-03-25T12:20:54.389Z,5.33
2019-03-25T12:25:48.570Z,7.65
2019-03-25T12:30:42.634Z,4.83
2019-03-25T12:35:36.715Z,7.30
2019-03-25T12:40:30.895Z,7.12
2019-03-25T12:45:24.901Z,9.20
2019-03-25T12:50:19.326Z,7.20
2019-03-25T12:55:13.399Z,5.57
2019-03-25T13:00:07.790Z,4.60
2019-03-25T13:05:03.072Z,4.05
2019-03-25T13:09:57.159Z,3.47
2019-03-25T13:14:51.148Z,1.95
2019-03-25T13:19:45.137Z,1.82
2019-03-25T13:24:39.194Z,4.95
2019-03-25T13:29:33.282Z,3.02
2019-03-25T13:34:27.405Z,4.30
2019-03-25T13:39:21.430Z,3.47
2019-03-25T13:44:15.561Z,5.65
2019-03-25T13:49:09.577Z,5.10
2019-03-25T13:54:03.871Z,6.55
2019-03-25T13:58:58.077Z,5.92
2019-03-25T14:03:52.146Z,8.13
2019-03-25T14:08:46.110Z,3.90
2019-03-25T14:13:48.692Z,7.40
2019-03-25T14:18:35.981Z,9.10
2019-03-25T14:23:30.018Z,7.83
2019-03-25T14:28:23.991Z,6.15
2019-03-25T14:33:17.973Z,8.63
2019-03-25T14:38:12.068Z,7.33
2019-03-25T14:43:06.314Z,7.17
2019-03-25T14:48:00.556Z,7.00
2019-03-25T14:52:54.649Z,9.20
2019-03-25T14:57:48.740Z,7.33
2019-03-25T15:02:42.745Z,7.35
2019-03-25T15:07:36.893Z,9.35
2019-03-25T15:12:31.188Z,8.58
2019-03-25T15:17:25.190Z,8.23
2019-03-25T15:22:19.146Z,10.58
2019-03-25T15:27:13.140Z,8.70
2019-03-25T15:32:07.126Z,8.60
2019-03-25T15:37:01.345Z,11.27
2019-03-25T15:41:55.477Z,13.10
2019-03-25T15:46:55.641Z,8.43
2019-03-25T15:51:45.347Z,14.40
2019-03-25T15:56:39.367Z,7.07
2019-03-25T16:01:33.443Z,13.23
2019-03-25T16:06:27.407Z,9.23
2019-03-25T16:11:21.489Z,9.40
2019-03-25T16:16:15.541Z,8.13
2019-03-25T16:21:09.727Z,11.23
2019-03-25T16:26:04.139Z,12.77
2019-03-25T16:30:59.208Z,12.37
2019-03-25T16:35:53.427Z,13.10
2019-03-25T16:40:47.422Z,6.60
2019-03-25T16:45:41.403Z,10.68
2019-03-25T16:50:35.421Z,12.13
2019-03-25T16:55:29.508Z,13.60
2019-03-25T17:00:27.577Z,9.23
2019-03-25T17:05:19.501Z,12.90
2019-03-25T17:10:13.519Z,12.65
2019-03-25T17:15:08.187Z,9.23
2019-03-25T17:20:03.518Z,6.13
2019-03-25T17:24:57.812Z,11.10
2019-03-25T17:29:52.012Z,6.97
2019-03-25T17:34:46.003Z,8.63
2019-03-25T17:39:40.016Z,8.20
2019-03-25T17:44:34.101Z,9.30
2019-03-25T17:49:28.320Z,4.37
2019-03-25T17:54:22.692Z,7.23
2019-03-25T17:59:16.772Z,8.13
2019-03-25T18:04:10.875Z,8.23
2019-03-25T18:09:06.103Z,5.53
2019-03-25T18:14:00.093Z,5.90
2019-03-25T18:18:54.270Z,11.67
2019-03-25T18:23:48.286Z,5.10
2019-03-25T18:28:42.592Z,5.40
2019-03-25T18:33:36.691Z,7.63
2019-03-25T18:38:30.925Z,10.63
2019-03-25T18:43:25.053Z,11.53
2019-03-25T18:48:19.726Z,6.37
2019-03-25T18:53:13.899Z,8.57
2019-03-25T18:58:08.295Z,9.03
2019-03-25T19:03:03.200Z,12.03
2019-03-25T19:08:02.527Z,10.90
2019-03-25T19:12:56.568Z,8.97
2019-03-25T19:17:51.232Z,8.77
2019-03-25T19:22:45.423Z,7.33
2019-03-25T19:27:39.409Z,8.07
2019-03-25T19:32:33.401Z,12.87
2019-03-25T19:37:27.552Z,9.63
2019-03-25T19:42:21.620Z,11.53
2019-03-25T19:47:16.080Z,10.17
2019-03-25T19:52:10.344Z,15.00
2019-03-25T19:57:04.503Z,12.37
2019-03-25T20:01:58.463Z,12.43
2019-03-25T20:06:52.721Z,10.53
2019-03-25T20:11:46.890Z,12.13
2019-03-25T20:16:40.985Z,9.03
2019-03-25T20:21:35.127Z,15.00
2019-03-25T20:26:29.165Z,16.40
2019-03-25T20:31:23.227Z,13.93
2019-03-25T20:36:17.382Z,13.27
2019-03-25T20:41:11.429Z,11.00
2019-03-25T20:46:05.666Z,12.60
2019-03-25T20:50:59.857Z,13.97
2019-03-25T20:55:53.933Z,16.10
2019-03-25T21:01:03.634Z,15.80
2019-03-25T21:05:58.103Z,12.57
2019-03-25T21:10:52.193Z,14.27
2019-03-25T21:15:46.390Z,12.07
2019-03-25T21:20:40.403Z,9.23
2019-03-25T21:25:34.505Z,9.13
2019-03-25T21:30:28.679Z,15.93
2019-03-25T21:35:22.863Z,9.27
2019-03-25T21:40:17.061Z,9.63
2019-03-25T21:45:11.183Z,18.03
2019-03-25T21:50:05.931Z,14.50
2019-03-25T21:55:00.012Z,17.23
2019-03-25T21:59:54.089Z,10.53
2019-03-25T22:04:48.212Z,13.37
2019-03-25T22:09:42.193Z,15.47
2019-03-25T22:14:36.277Z,18.17
2019-03-25T22:19:30.440Z,16.40
2019-03-25T22:24:24.400Z,10.83
2019-03-25T22:29:18.487Z,14.53
2019-03-25T22:34:12.467Z,11.73
2019-03-25T22:39:06.597Z,20.27
2019-03-25T22:44:00.565Z,18.97
2019-03-25T22:48:54.588Z,15.90
2019-03-25T22:53:48.570Z,14.23
2019-03-25T22:58:42.662Z,19.73
2019-03-25T23:03:39.331Z,22.33
2019-03-25T23:08:34.537Z,17.70
2019-03-25T23:13:28.709Z,16.30
2019-03-25T23:18:22.788Z,23.07
2019-03-25T23:23:16.767Z,20.70
2019-03-25T23:28:10.835Z,18.13
2019-03-25T23:33:04.799Z,13.40
2019-03-25T23:37:58.993Z,16.17
2019-03-25T23:42:52.961Z,26.53
2019-03-25T23:47:47.036Z,19.60
2019-03-25T23:52:41.130Z,18.20
2019-03-25T23:57:35.084Z,19.20
